sensor_id;sensor_type;location;lat;lon;timestamp;pressure;altitude;pressure_sealevel;temperature;humidity
78144;BME280;67394;52.522;13.622;2023-07-31T00:01:17;100529.78;;;15.19;97.60
78144;BME280;67394;52.522;13.622;2023-07-31T00:03:45;100532.38;;;15.17;98.21
78144;BME280;67394;52.522;13.622;2023-07-31T00:06:12;100529.84;;;15.16;97.82
78144;BME280;67394;52.522;13.622;2023-07-31T00:08:39;100526.38;;;15.17;98.42
78144;BME280;67394;52.522;13.622;2023-07-31T00:11:05;100526.34;;;15.18;97.94
78144;BME280;67394;52.522;13.622;2023-07-31T00:13:32;100516.16;;;15.12;98.22
78144;BME280;67394;52.522;13.622;2023-07-31T00:15:59;100516.28;;;15.06;97.66
78144;BME280;67394;52.522;13.622;2023-07-31T00:18:25;100517.25;;;15.02;98.63
78144;BME280;67394;52.522;13.622;2023-07-31T00:20:52;100516.41;;;15.00;98.16
78144;BME280;67394;52.522;13.622;2023-07-31T00:23:19;100527.69;;;14.94;97.97
78144;BME280;67394;52.522;13.622;2023-07-31T00:25:45;100512.28;;;14.93;98.14
78144;BME280;67394;52.522;13.622;2023-07-31T00:28:11;100517.44;;;14.93;98.58
78144;BME280;67394;52.522;13.622;2023-07-31T00:30:38;100503.75;;;14.88;98.30
78144;BME280;67394;52.522;13.622;2023-07-31T00:33:05;100504.59;;;14.88;98.67
78144;BME280;67394;52.522;13.622;2023-07-31T00:35:32;100505.50;;;14.86;98.81
78144;BME280;67394;52.522;13.622;2023-07-31T00:37:58;100497.88;;;14.81;99.18
78144;BME280;67394;52.522;13.622;2023-07-31T00:40:25;100495.34;;;14.78;99.21
78144;BME280;67394;52.522;13.622;2023-07-31T00:42:52;100491.09;;;14.76;100.00
78144;BME280;67394;52.522;13.622;2023-07-31T00:45:19;100491.16;;;14.73;99.60
78144;BME280;67394;52.522;13.622;2023-07-31T00:47:45;100484.34;;;14.70;99.85
78144;BME280;67394;52.522;13.622;2023-07-31T00:50:13;100484.34;;;14.70;100.00
78144;BME280;67394;52.522;13.622;2023-07-31T00:52:40;100486.13;;;14.67;100.00
78144;BME280;67394;52.522;13.622;2023-07-31T00:55:07;100482.66;;;14.68;100.00
78144;BME280;67394;52.522;13.622;2023-07-31T00:57:36;100480.09;;;14.68;100.00
78144;BME280;67394;52.522;13.622;2023-07-31T01:00:05;100473.22;;;14.67;100.00
78144;BME280;67394;52.522;13.622;2023-07-31T01:02:31;100485.19;;;14.71;100.00
78144;BME280;67394;52.522;13.622;2023-07-31T01:04:59;100476.63;;;14.69;100.00
78144;BME280;67394;52.522;13.622;2023-07-31T01:10:23;100468.88;;;14.70;100.00
78144;BME280;67394;52.522;13.622;2023-07-31T01:12:53;100471.44;;;14.70;100.00
78144;BME280;67394;52.522;13.622;2023-07-31T01:15:20;100466.25;;;14.72;100.00
78144;BME280;67394;52.522;13.622;2023-07-31T01:17:47;100469.69;;;14.72;100.00
78144;BME280;67394;52.522;13.622;2023-07-31T01:20:18;100465.31;;;14.74;100.00
78144;BME280;67394;52.522;13.622;2023-07-31T01:28:33;100471.34;;;14.75;100.00
78144;BME280;67394;52.522;13.622;2023-07-31T01:31:02;100466.16;;;14.76;100.00
78144;BME280;67394;52.522;13.622;2023-07-31T01:33:32;100463.56;;;14.76;100.00
78144;BME280;67394;52.522;13.622;2023-07-31T01:35:59;100460.16;;;14.74;100.00
78144;BME280;67394;52.522;13.622;2023-07-31T01:38:25;100469.63;;;14.74;100.00
78144;BME280;67394;52.522;13.622;2023-07-31T01:40:52;100468.78;;;14.73;100.00
78144;BME280;67394;52.522;13.622;2023-07-31T01:43:20;100462.75;;;14.73;100.00
78144;BME280;67394;52.522;13.622;2023-07-31T01:45:46;100461.09;;;14.72;100.00
78144;BME280;67394;52.522;13.622;2023-07-31T01:48:13;100447.38;;;14.70;100.00
78144;BME280;67394;52.522;13.622;2023-07-31T01:50:39;100443.91;;;14.71;100.00
78144;BME280;67394;52.522;13.622;2023-07-31T01:53:06;100446.47;;;14.72;100.00
78144;BME280;67394;52.522;13.622;2023-07-31T01:55:32;100448.97;;;14.74;100.00
78144;BME280;67394;52.522;13.622;2023-07-31T01:57:59;100444.63;;;14.77;100.00
78144;BME280;67394;52.522;13.622;2023-07-31T02:00:26;100438.63;;;14.77;100.00
78144;BME280;67394;52.522;13.622;2023-07-31T02:02:52;100433.41;;;14.78;100.00
78144;BME280;67394;52.522;13.622;2023-07-31T02:05:19;100439.44;;;14.79;100.00
78144;BME280;67394;52.522;13.622;2023-07-31T02:07:45;100440.25;;;14.81;100.00
78144;BME280;67394;52.522;13.622;2023-07-31T02:10:12;100440.25;;;14.81;100.00
78144;BME280;67394;52.522;13.622;2023-07-31T02:12:39;100439.28;;;14.85;100.00
78144;BME280;67394;52.522;13.622;2023-07-31T02:15:06;100427.34;;;14.81;100.00
78144;BME280;67394;52.522;13.622;2023-07-31T02:17:33;100433.28;;;14.84;100.00
78144;BME280;67394;52.522;13.622;2023-07-31T02:20:00;100438.44;;;14.84;100.00
78144;BME280;67394;52.522;13.622;2023-07-31T02:22:26;100437.69;;;14.81;100.00
78144;BME280;67394;52.522;13.622;2023-07-31T02:24:53;100434.25;;;14.80;100.00
78144;BME280;67394;52.522;13.622;2023-07-31T02:27:20;100430.75;;;14.83;100.00
78144;BME280;67394;52.522;13.622;2023-07-31T02:29:47;100430.66;;;14.86;100.00
78144;BME280;67394;52.522;13.622;2023-07-31T02:32:13;100422.94;;;14.86;100.00
78144;BME280;67394;52.522;13.622;2023-07-31T02:34:40;100418.63;;;14.86;100.00
78144;BME280;67394;52.522;13.622;2023-07-31T02:37:07;100418.66;;;14.85;100.00
78144;BME280;67394;52.522;13.622;2023-07-31T02:39:34;100413.44;;;14.86;100.00
78144;BME280;67394;52.522;13.622;2023-07-31T02:42:00;100414.31;;;14.87;100.00
78144;BME280;67394;52.522;13.622;2023-07-31T02:44:27;100409.19;;;14.84;100.00
78144;BME280;67394;52.522;13.622;2023-07-31T02:46:54;100409.16;;;14.85;100.00
78144;BME280;67394;52.522;13.622;2023-07-31T02:49:20;100416.03;;;14.86;100.00
78144;BME280;67394;52.522;13.622;2023-07-31T02:51:47;100407.44;;;14.86;100.00
78144;BME280;67394;52.522;13.622;2023-07-31T02:54:13;100396.22;;;14.88;100.00
78144;BME280;67394;52.522;13.622;2023-07-31T02:56:40;100403.94;;;14.88;100.00
78144;BME280;67394;52.522;13.622;2023-07-31T02:59:07;100401.38;;;14.88;100.00
78144;BME280;67394;52.522;13.622;2023-07-31T03:01:33;100392.78;;;14.88;100.00
78144;BME280;67394;52.522;13.622;2023-07-31T03:04:00;100403.97;;;14.87;100.00
78144;BME280;67394;52.522;13.622;2023-07-31T03:06:26;100395.41;;;14.85;100.00
78144;BME280;67394;52.522;13.622;2023-07-31T03:08:52;100395.41;;;14.85;100.00
78144;BME280;67394;52.522;13.622;2023-07-31T03:11:19;100397.22;;;14.83;100.00
78144;BME280;67394;52.522;13.622;2023-07-31T03:13:45;100394.66;;;14.81;100.00
78144;BME280;67394;52.522;13.622;2023-07-31T03:16:12;100394.66;;;14.81;100.00
78144;BME280;67394;52.522;13.622;2023-07-31T03:18:39;100407.53;;;14.83;100.00
78144;BME280;67394;52.522;13.622;2023-07-31T03:21:05;100393.72;;;14.84;100.00
78144;BME280;67394;52.522;13.622;2023-07-31T03:23:31;100404.97;;;14.81;100.00
78144;BME280;67394;52.522;13.622;2023-07-31T03:26:02;100401.59;;;14.78;100.00
78144;BME280;67394;52.522;13.622;2023-07-31T03:28:29;100396.25;;;14.87;100.00
78144;BME280;67394;52.522;13.622;2023-07-31T03:30:56;100391.19;;;14.82;100.00
78144;BME280;67394;52.522;13.622;2023-07-31T03:33:23;100392.94;;;14.82;100.00
78144;BME280;67394;52.522;13.622;2023-07-31T03:35:49;100393.88;;;14.78;100.00
78144;BME280;67394;52.522;13.622;2023-07-31T03:38:16;100385.22;;;14.80;100.00
78144;BME280;67394;52.522;13.622;2023-07-31T03:40:43;100380.88;;;14.82;100.00
78144;BME280;67394;52.522;13.622;2023-07-31T03:43:10;100377.44;;;14.82;100.00
78144;BME280;67394;52.522;13.622;2023-07-31T03:45:36;100379.19;;;14.81;100.00
78144;BME280;67394;52.522;13.622;2023-07-31T03:48:03;100371.47;;;14.80;100.00
78144;BME280;67394;52.522;13.622;2023-07-31T03:50:31;100375.75;;;14.81;100.00
78144;BME280;67394;52.522;13.622;2023-07-31T03:52:57;100376.63;;;14.80;100.00
78144;BME280;67394;52.522;13.622;2023-07-31T03:55:24;100373.13;;;14.82;100.00
78144;BME280;67394;52.522;13.622;2023-07-31T03:57:50;100376.50;;;14.84;100.00
78144;BME280;67394;52.522;13.622;2023-07-31T04:00:17;100374.88;;;14.82;100.00
78144;BME280;67394;52.522;13.622;2023-07-31T04:02:43;100362.75;;;14.84;100.00
78144;BME280;67394;52.522;13.622;2023-07-31T04:05:10;100365.28;;;14.85;100.00
78144;BME280;67394;52.522;13.622;2023-07-31T04:07:37;100373.06;;;14.84;100.00
78144;BME280;67394;52.522;13.622;2023-07-31T04:10:04;100367.06;;;14.83;100.00
78144;BME280;67394;52.522;13.622;2023-07-31T04:12:30;100361.13;;;14.80;100.00
78144;BME280;67394;52.522;13.622;2023-07-31T04:14:57;100359.38;;;14.82;100.00
78144;BME280;67394;52.522;13.622;2023-07-31T04:17:24;100356.72;;;14.83;100.00
78144;BME280;67394;52.522;13.622;2023-07-31T04:19:50;100356.69;;;14.86;100.00
78144;BME280;67394;52.522;13.622;2023-07-31T04:22:17;100342.03;;;14.87;100.00
78144;BME280;67394;52.522;13.622;2023-07-31T04:24:43;100341.16;;;14.88;100.00
78144;BME280;67394;52.522;13.622;2023-07-31T04:27:10;100334.25;;;14.88;100.00
78144;BME280;67394;52.522;13.622;2023-07-31T04:29:36;100335.97;;;14.89;100.00
78144;BME280;67394;52.522;13.622;2023-07-31T04:32:03;100346.16;;;14.94;100.00
78144;BME280;67394;52.522;13.622;2023-07-31T04:34:31;100347.88;;;14.95;100.00
78144;BME280;67394;52.522;13.622;2023-07-31T04:36:58;100341.75;;;14.99;100.00
78144;BME280;67394;52.522;13.622;2023-07-31T04:39:24;100344.19;;;15.05;100.00
78144;BME280;67394;52.522;13.622;2023-07-31T04:41:51;100348.47;;;15.06;100.00
78144;BME280;67394;52.522;13.622;2023-07-31T04:44:17;100338.97;;;15.08;100.00
78144;BME280;67394;52.522;13.622;2023-07-31T04:46:44;100342.31;;;15.12;100.00
78144;BME280;67394;52.522;13.622;2023-07-31T04:49:11;100339.72;;;15.13;100.00
78144;BME280;67394;52.522;13.622;2023-07-31T04:51:37;100334.56;;;15.12;100.00
78144;BME280;67394;52.522;13.622;2023-07-31T04:54:04;100337.09;;;15.15;100.00
78144;BME280;67394;52.522;13.622;2023-07-31T04:56:31;100332.75;;;15.15;100.00
78144;BME280;67394;52.522;13.622;2023-07-31T04:58:57;100340.59;;;15.12;100.00
78144;BME280;67394;52.522;13.622;2023-07-31T05:01:25;100332.81;;;15.14;100.00
78144;BME280;67394;52.522;13.622;2023-07-31T05:03:51;100334.44;;;15.16;100.00
78144;BME280;67394;52.522;13.622;2023-07-31T05:06:18;100330.94;;;15.19;100.00
78144;BME280;67394;52.522;13.622;2023-07-31T05:08:45;100337.78;;;15.21;100.00
78144;BME280;67394;52.522;13.622;2023-07-31T05:11:12;100337.75;;;15.23;100.00
78144;BME280;67394;52.522;13.622;2023-07-31T05:13:38;100335.16;;;15.23;100.00
78144;BME280;67394;52.522;13.622;2023-07-31T05:16:05;100335.16;;;15.23;100.00
78144;BME280;67394;52.522;13.622;2023-07-31T05:18:31;100334.13;;;15.30;100.00
78144;BME280;67394;52.522;13.622;2023-07-31T05:20:58;100330.56;;;15.35;100.00
78144;BME280;67394;52.522;13.622;2023-07-31T05:23:24;100337.38;;;15.36;100.00
78144;BME280;67394;52.522;13.622;2023-07-31T05:25:51;100337.06;;;15.49;100.00
78144;BME280;67394;52.522;13.622;2023-07-31T05:28:17;100330.22;;;15.48;100.00
78144;BME280;67394;52.522;13.622;2023-07-31T05:30:44;100332.72;;;15.51;100.00
78144;BME280;67394;52.522;13.622;2023-07-31T05:33:10;100330.97;;;15.53;100.00
78144;BME280;67394;52.522;13.622;2023-07-31T05:35:40;100325.78;;;15.54;100.00
78144;BME280;67394;52.522;13.622;2023-07-31T05:38:06;100327.47;;;15.55;100.00
78144;BME280;67394;52.522;13.622;2023-07-31T05:40:33;100329.22;;;15.55;100.00
78144;BME280;67394;52.522;13.622;2023-07-31T05:42:59;100326.50;;;15.59;100.00
78144;BME280;67394;52.522;13.622;2023-07-31T05:45:26;100329.25;;;15.52;100.00
78144;BME280;67394;52.522;13.622;2023-07-31T05:47:52;100319.75;;;15.54;100.00
78144;BME280;67394;52.522;13.622;2023-07-31T05:50:19;100320.47;;;15.59;100.00
78144;BME280;67394;52.522;13.622;2023-07-31T05:52:45;100324.88;;;15.57;100.00
78144;BME280;67394;52.522;13.622;2023-07-31T05:55:12;100324.75;;;15.60;100.00
78144;BME280;67394;52.522;13.622;2023-07-31T05:57:39;100318.78;;;15.58;100.00
78144;BME280;67394;52.522;13.622;2023-07-31T06:00:06;100325.50;;;15.65;100.00
78144;BME280;67394;52.522;13.622;2023-07-31T06:02:33;100317.75;;;15.65;100.00
78144;BME280;67394;52.522;13.622;2023-07-31T06:04:59;100318.47;;;15.70;100.00
78144;BME280;67394;52.522;13.622;2023-07-31T06:07:26;100320.16;;;15.71;100.00
78144;BME280;67394;52.522;13.622;2023-07-31T06:09:52;100322.81;;;15.68;100.00
78144;BME280;67394;52.522;13.622;2023-07-31T06:12:19;100314.94;;;15.72;100.00
78144;BME280;67394;52.522;13.622;2023-07-31T06:14:45;100314.94;;;15.72;100.00
78144;BME280;67394;52.522;13.622;2023-07-31T06:17:12;100316.66;;;15.73;100.00
78144;BME280;67394;52.522;13.622;2023-07-31T06:19:38;100312.25;;;15.77;100.00
78144;BME280;67394;52.522;13.622;2023-07-31T06:22:05;100311.44;;;15.75;100.00
78144;BME280;67394;52.522;13.622;2023-07-31T06:24:32;100312.97;;;15.82;100.00
78144;BME280;67394;52.522;13.622;2023-07-31T06:26:58;100312.16;;;15.80;100.00
78144;BME280;67394;52.522;13.622;2023-07-31T06:29:25;100313.84;;;15.81;100.00
78144;BME280;67394;52.522;13.622;2023-07-31T06:31:51;100319.13;;;15.78;100.00
78144;BME280;67394;52.522;13.622;2023-07-31T06:34:18;100322.50;;;15.80;100.00
78144;BME280;67394;52.522;13.622;2023-07-31T06:36:44;100320.78;;;15.79;100.00
78144;BME280;67394;52.522;13.622;2023-07-31T06:39:11;100318.22;;;15.79;100.00
78144;BME280;67394;52.522;13.622;2023-07-31T06:41:38;100318.09;;;15.84;100.00
78144;BME280;67394;52.522;13.622;2023-07-31T06:44:04;100311.13;;;15.87;100.00
78144;BME280;67394;52.522;13.622;2023-07-31T06:46:31;100305.78;;;15.92;100.00
78144;BME280;67394;52.522;13.622;2023-07-31T06:48:57;100313.56;;;15.92;100.00
78144;BME280;67394;52.522;13.622;2023-07-31T06:51:24;100314.09;;;16.03;100.00
78144;BME280;67394;52.522;13.622;2023-07-31T06:53:50;100311.56;;;16.01;100.00
78144;BME280;67394;52.522;13.622;2023-07-31T06:56:17;100310.59;;;16.05;100.00
78144;BME280;67394;52.522;13.622;2023-07-31T06:58:43;100309.84;;;16.00;100.00
78144;BME280;67394;52.522;13.622;2023-07-31T07:01:10;100302.91;;;16.02;100.00
78144;BME280;67394;52.522;13.622;2023-07-31T07:03:36;100305.69;;;15.96;100.00
78144;BME280;67394;52.522;13.622;2023-07-31T07:06:03;100302.78;;;16.07;100.00
78144;BME280;67394;52.522;13.622;2023-07-31T07:08:29;100293.03;;;16.17;100.00
78144;BME280;67394;52.522;13.622;2023-07-31T07:10:56;100295.63;;;16.17;100.00
78144;BME280;67394;52.522;13.622;2023-07-31T07:13:22;100297.34;;;16.16;100.00
78144;BME280;67394;52.522;13.622;2023-07-31T07:15:49;100301.63;;;16.17;100.00
78144;BME280;67394;52.522;13.622;2023-07-31T07:18:16;100307.78;;;16.13;100.00
78144;BME280;67394;52.522;13.622;2023-07-31T07:20:53;100308.69;;;16.10;100.00
78144;BME280;67394;52.522;13.622;2023-07-31T07:23:20;100308.84;;;16.06;100.00
78144;BME280;67394;52.522;13.622;2023-07-31T07:25:48;100314.09;;;16.03;100.00
78144;BME280;67394;52.522;13.622;2023-07-31T07:28:14;100309.97;;;15.97;100.00
78144;BME280;67394;52.522;13.622;2023-07-31T07:30:41;100308.31;;;15.95;100.00
78144;BME280;67394;52.522;13.622;2023-07-31T07:33:07;100315.78;;;16.04;100.00
78144;BME280;67394;52.522;13.622;2023-07-31T07:35:35;100311.41;;;16.07;100.00
78144;BME280;67394;52.522;13.622;2023-07-31T07:38:02;100306.34;;;16.03;100.00
78144;BME280;67394;52.522;13.622;2023-07-31T07:40:29;100307.94;;;16.08;100.00
78144;BME280;67394;52.522;13.622;2023-07-31T07:42:55;100305.97;;;16.17;100.00
78144;BME280;67394;52.522;13.622;2023-07-31T07:45:22;100292.13;;;16.18;100.00
78144;BME280;67394;52.522;13.622;2023-07-31T07:47:48;100285.28;;;16.17;100.00
78144;BME280;67394;52.522;13.622;2023-07-31T07:50:15;100294.34;;;16.31;100.00
78144;BME280;67394;52.522;13.622;2023-07-31T07:52:42;100288.75;;;16.43;100.00
78144;BME280;67394;52.522;13.622;2023-07-31T07:55:08;100284.78;;;16.63;100.00
78144;BME280;67394;52.522;13.622;2023-07-31T07:57:35;100284.34;;;16.75;100.00
78144;BME280;67394;52.522;13.622;2023-07-31T08:00:01;100281.53;;;16.82;100.00
78144;BME280;67394;52.522;13.622;2023-07-31T08:02:28;100284.50;;;16.97;100.00
78144;BME280;67394;52.522;13.622;2023-07-31T08:04:55;100279.03;;;17.06;100.00
78144;BME280;67394;52.522;13.622;2023-07-31T08:07:21;100276.78;;;17.22;100.00
78144;BME280;67394;52.522;13.622;2023-07-31T08:09:49;100278.88;;;17.10;100.00
78144;BME280;67394;52.522;13.622;2023-07-31T08:12:15;100278.50;;;16.96;99.57
78144;BME280;67394;52.522;13.622;2023-07-31T08:14:41;100271.56;;;16.97;100.00
78144;BME280;67394;52.522;13.622;2023-07-31T08:17:08;100279.34;;;16.97;100.00
78144;BME280;67394;52.522;13.622;2023-07-31T08:19:35;100279.25;;;17.00;100.00
78144;BME280;67394;52.522;13.622;2023-07-31T08:22:01;100282.72;;;16.99;100.00
78144;BME280;67394;52.522;13.622;2023-07-31T08:24:28;100286.66;;;17.10;100.00
78144;BME280;67394;52.522;13.622;2023-07-31T08:26:54;100272.97;;;17.07;100.00
78144;BME280;67394;52.522;13.622;2023-07-31T08:29:21;100261.03;;;17.03;100.00
78144;BME280;67394;52.522;13.622;2023-07-31T08:31:49;100255.13;;;16.98;99.15
78144;BME280;67394;52.522;13.622;2023-07-31T08:34:15;100251.47;;;17.05;100.00
78144;BME280;67394;52.522;13.622;2023-07-31T08:36:42;100247.66;;;17.15;100.00
78144;BME280;67394;52.522;13.622;2023-07-31T08:39:08;100250.09;;;17.19;99.30
78144;BME280;67394;52.522;13.622;2023-07-31T08:41:38;100252.84;;;17.15;99.53
78144;BME280;67394;52.522;13.622;2023-07-31T08:44:07;100253.78;;;17.12;100.00
78144;BME280;67394;52.522;13.622;2023-07-31T08:46:34;100250.31;;;17.13;100.00
78144;BME280;67394;52.522;13.622;2023-07-31T08:49:04;100263.22;;;17.15;100.00
78144;BME280;67394;52.522;13.622;2023-07-31T08:51:31;100257.00;;;17.19;100.00
78144;BME280;67394;52.522;13.622;2023-07-31T08:53:58;100259.81;;;17.13;100.00
78144;BME280;67394;52.522;13.622;2023-07-31T08:56:24;100260.91;;;17.06;100.00
78144;BME280;67394;52.522;13.622;2023-07-31T08:58:52;100261.50;;;17.14;100.00
78144;BME280;67394;52.522;13.622;2023-07-31T09:01:20;100258.13;;;17.12;100.00
78144;BME280;67394;52.522;13.622;2023-07-31T09:03:48;100258.94;;;17.14;100.00
78144;BME280;67394;52.522;13.622;2023-07-31T09:06:18;100260.63;;;17.15;100.00
78144;BME280;67394;52.522;13.622;2023-07-31T09:08:46;100264.25;;;17.09;99.63
78144;BME280;67394;52.522;13.622;2023-07-31T09:11:13;100261.25;;;17.22;100.00
78144;BME280;67394;52.522;13.622;2023-07-31T09:13:40;100271.09;;;17.37;100.00
78144;BME280;67394;52.522;13.622;2023-07-31T09:16:08;100263.91;;;17.45;100.00
78144;BME280;67394;52.522;13.622;2023-07-31T09:18:56;100264.25;;;17.59;100.00
78144;BME280;67394;52.522;13.622;2023-07-31T09:21:23;100263.00;;;17.71;98.41
78144;BME280;67394;52.522;13.622;2023-07-31T09:23:50;100258.50;;;17.76;97.90
78144;BME280;67394;52.522;13.622;2023-07-31T09:29:00;100256.84;;;17.73;96.75
78144;BME280;67394;52.522;13.622;2023-07-31T09:31:41;100254.66;;;17.63;98.29
78144;BME280;67394;52.522;13.622;2023-07-31T09:34:08;100257.13;;;17.66;99.42
78144;BME280;67394;52.522;13.622;2023-07-31T09:39:13;100264.06;;;17.65;100.00
78144;BME280;67394;52.522;13.622;2023-07-31T09:41:44;100253.16;;;17.55;99.93
78144;BME280;67394;52.522;13.622;2023-07-31T09:44:12;100258.63;;;17.48;100.00
78144;BME280;67394;52.522;13.622;2023-07-31T09:46:38;100253.25;;;17.28;99.50
78144;BME280;67394;52.522;13.622;2023-07-31T09:49:09;100253.75;;;17.14;100.00
78144;BME280;67394;52.522;13.622;2023-07-31T09:51:37;100259.78;;;17.14;100.00
78144;BME280;67394;52.522;13.622;2023-07-31T09:54:09;100251.47;;;17.05;100.00
78144;BME280;67394;52.522;13.622;2023-07-31T09:56:36;100240.97;;;17.08;100.00
78144;BME280;67394;52.522;13.622;2023-07-31T09:59:05;100243.69;;;17.05;100.00
78144;BME280;67394;52.522;13.622;2023-07-31T10:01:32;100257.41;;;17.07;100.00
78144;BME280;67394;52.522;13.622;2023-07-31T10:03:59;100247.00;;;17.08;100.00
78144;BME280;67394;52.522;13.622;2023-07-31T10:06:26;100249.72;;;17.05;100.00
78144;BME280;67394;52.522;13.622;2023-07-31T10:08:54;100246.81;;;17.14;100.00
78144;BME280;67394;52.522;13.622;2023-07-31T10:11:22;100246.59;;;17.20;100.00
78144;BME280;67394;52.522;13.622;2023-07-31T10:13:51;100243.00;;;17.25;100.00
78144;BME280;67394;52.522;13.622;2023-07-31T10:16:19;100241.84;;;17.33;100.00
78144;BME280;67394;52.522;13.622;2023-07-31T10:18:46;100237.97;;;17.45;100.00
78144;BME280;67394;52.522;13.622;2023-07-31T10:21:13;100239.41;;;17.53;99.26
78144;BME280;67394;52.522;13.622;2023-07-31T10:23:41;100239.09;;;17.63;97.11
78144;BME280;67394;52.522;13.622;2023-07-31T10:26:10;100232.00;;;17.68;97.24
78144;BME280;67394;52.522;13.622;2023-07-31T10:28:38;100234.47;;;17.71;96.81
78144;BME280;67394;52.522;13.622;2023-07-31T10:31:06;100226.69;;;17.71;96.94
78144;BME280;67394;52.522;13.622;2023-07-31T10:33:32;100226.75;;;17.69;97.23
78144;BME280;67394;52.522;13.622;2023-07-31T10:36:13;100229.28;;;17.71;97.79
78144;BME280;67394;52.522;13.622;2023-07-31T10:38:39;100241.69;;;17.63;97.73
78144;BME280;67394;52.522;13.622;2023-07-31T10:41:28;100235.69;;;17.61;97.24
78144;BME280;67394;52.522;13.622;2023-07-31T10:44:00;100243.28;;;17.67;98.37
78144;BME280;67394;52.522;13.622;2023-07-31T10:46:30;100240.91;;;17.59;100.00
78144;BME280;67394;52.522;13.622;2023-07-31T10:49:01;100229.22;;;17.72;100.00
78144;BME280;67394;52.522;13.622;2023-07-31T10:51:35;100229.53;;;17.88;100.00
78144;BME280;67394;52.522;13.622;2023-07-31T10:54:15;100227.72;;;17.90;100.00
78144;BME280;67394;52.522;13.622;2023-07-31T10:56:46;100213.44;;;18.02;100.00
78144;BME280;67394;52.522;13.622;2023-07-31T10:59:13;100209.03;;;18.25;100.00
78144;BME280;67394;52.522;13.622;2023-07-31T11:01:53;100204.13;;;18.63;97.79
78144;BME280;67394;52.522;13.622;2023-07-31T11:04:26;100200.38;;;19.11;96.50
78144;BME280;67394;52.522;13.622;2023-07-31T11:07:01;100195.16;;;19.31;94.15
78144;BME280;67394;52.522;13.622;2023-07-31T11:09:32;100189.09;;;19.30;91.70
78144;BME280;67394;52.522;13.622;2023-07-31T11:11:59;100178.72;;;19.30;93.45
78144;BME280;67394;52.522;13.622;2023-07-31T11:14:26;100174.84;;;19.39;92.34
78144;BME280;67394;52.522;13.622;2023-07-31T11:16:53;100168.75;;;19.40;89.64
78144;BME280;67394;52.522;13.622;2023-07-31T11:19:24;100170.50;;;19.39;89.98
78144;BME280;67394;52.522;13.622;2023-07-31T11:21:55;100178.91;;;19.46;88.21
78144;BME280;67394;52.522;13.622;2023-07-31T11:24:22;100183.16;;;19.49;86.04
78144;BME280;67394;52.522;13.622;2023-07-31T11:26:50;100176.91;;;19.32;86.28
78144;BME280;67394;52.522;13.622;2023-07-31T11:29:17;100165.03;;;19.27;86.57
78144;BME280;67394;52.522;13.622;2023-07-31T11:31:44;100161.34;;;19.51;86.68
78144;BME280;67394;52.522;13.622;2023-07-31T11:34:11;100167.47;;;19.50;86.00
78144;BME280;67394;52.522;13.622;2023-07-31T11:36:37;100166.06;;;19.62;85.90
78144;BME280;67394;52.522;13.622;2023-07-31T11:39:09;100176.38;;;19.82;85.16
78144;BME280;67394;52.522;13.622;2023-07-31T11:41:36;100161.13;;;19.93;83.41
78144;BME280;67394;52.522;13.622;2023-07-31T11:44:06;100162.88;;;19.93;79.70
78144;BME280;67394;52.522;13.622;2023-07-31T11:46:52;100159.88;;;19.83;79.76
78144;BME280;67394;52.522;13.622;2023-07-31T11:49:19;100167.91;;;19.79;79.82
78144;BME280;67394;52.522;13.622;2023-07-31T11:51:47;100159.66;;;19.88;78.82
78144;BME280;67394;52.522;13.622;2023-07-31T11:54:14;100152.22;;;19.80;76.55
78144;BME280;67394;52.522;13.622;2023-07-31T11:56:40;100159.75;;;19.67;75.06
78144;BME280;67394;52.522;13.622;2023-07-31T11:59:08;100152.94;;;19.65;76.44
78144;BME280;67394;52.522;13.622;2023-07-31T12:01:34;100161.78;;;19.61;77.33
78144;BME280;67394;52.522;13.622;2023-07-31T12:04:01;100155.47;;;19.66;75.59
78144;BME280;67394;52.522;13.622;2023-07-31T12:06:35;100152.72;;;19.69;75.96
78144;BME280;67394;52.522;13.622;2023-07-31T12:09:06;100156.06;;;19.71;75.16
78144;BME280;67394;52.522;13.622;2023-07-31T12:11:46;100155.41;;;19.68;76.01
78144;BME280;67394;52.522;13.622;2023-07-31T12:14:27;100149.63;;;19.61;76.75
78144;BME280;67394;52.522;13.622;2023-07-31T12:17:00;100155.88;;;19.57;76.43
78144;BME280;67394;52.522;13.622;2023-07-31T12:19:30;100150.44;;;19.43;78.86
78144;BME280;67394;52.522;13.622;2023-07-31T12:21:59;100145.09;;;19.27;82.00
78144;BME280;67394;52.522;13.622;2023-07-31T12:24:26;100147.50;;;19.12;83.53
78144;BME280;67394;52.522;13.622;2023-07-31T12:26:53;100139.56;;;19.15;82.42
78144;BME280;67394;52.522;13.622;2023-07-31T12:29:19;100146.19;;;19.22;83.22
78144;BME280;67394;52.522;13.622;2023-07-31T12:31:46;100134.53;;;19.30;83.00
78144;BME280;67394;52.522;13.622;2023-07-31T12:34:17;100133.00;;;19.45;82.46
78144;BME280;67394;52.522;13.622;2023-07-31T12:36:44;100128.47;;;19.69;80.54
78144;BME280;67394;52.522;13.622;2023-07-31T12:39:12;100121.50;;;19.88;79.90
78144;BME280;67394;52.522;13.622;2023-07-31T12:41:39;100123.38;;;19.85;78.43
78144;BME280;67394;52.522;13.622;2023-07-31T12:44:06;100123.31;;;19.86;79.29
78144;BME280;67394;52.522;13.622;2023-07-31T12:46:32;100121.09;;;19.79;76.58
78144;BME280;67394;52.522;13.622;2023-07-31T12:48:59;100118.63;;;19.76;77.26